Time;durP1;ratioP1;P1;durP2;ratioP2;P2;SDS_P1;SDS_P2;PMS_P1;PMS_P2;Temp;Humidity;BMP_temperature;BMP_pressure;BME280_temperature;BME280_humidity;BME280_pressure;Samples;Min_cycle;Max_cycle;Signal;HPM_P1;HPM_P2
2023/04/16 00:01:48;;;;;;;0.20;0.20;;;9.30;99.90;;;;;;6217401;23;20016;-81
2023/04/16 00:04:17;;;;;;;0.17;0.17;;;8.50;99.90;;;;;;6218349;23;20086;-80
2023/04/16 00:06:52;;;;;;;0.20;0.20;;;8.50;99.90;;;;;;6217852;23;20046;-81
2023/04/16 00:09:17;;;;;;;0.20;0.20;;;8.50;99.90;;;;;;6216671;23;20019;-81
2023/04/16 00:11:43;;;;;;;0.20;0.20;;;8.50;99.90;;;;;;6238514;23;20546;-81
2023/04/16 00:14:09;;;;;;;0.20;0.20;;;8.60;99.90;;;;;;6215519;23;20106;-82
2023/04/16 00:16:35;;;;;;;0.20;0.20;;;8.50;99.90;;;;;;6243346;23;20036;-81
2023/04/16 00:19:00;;;;;;;0.15;0.15;;;9.20;99.90;;;;;;6215801;23;20020;-81
2023/04/16 00:21:26;;;;;;;0.20;0.20;;;8.40;99.90;;;;;;6216832;23;20012;-80
2023/04/16 00:24:01;;;;;;;0.20;0.20;;;8.40;99.90;;;;;;6216319;23;20292;-81
2023/04/16 00:26:27;;;;;;;0.15;0.15;;;;;;;;;;6215778;23;20020;-80
2023/04/16 00:29:02;;;;;;;0.20;0.20;;;8.50;99.90;;;;;;6244465;23;20125;-81
2023/04/16 00:31:40;;;;;;;0.10;0.10;;;8.40;99.90;;;;;;6214980;23;20380;-80
2023/04/16 00:34:18;;;;;;;0.20;0.20;;;8.50;99.90;;;;;;6242379;23;20055;-79
2023/04/16 00:36:43;;;;;;;0.15;0.15;;;8.50;99.90;;;;;;6215796;23;20020;-80
2023/04/16 00:42:10;;;;;;;0.20;0.20;;;8.40;99.90;;;;;;6243148;22;20020;-80
2023/04/16 00:44:38;;;;;;;0.20;0.20;;;8.30;99.90;;;;;;6213137;23;20028;-80
2023/04/16 00:47:20;;;;;;;0.15;0.15;;;9.40;99.90;;;;;;6218145;23;20091;-80
2023/04/16 00:49:46;;;;;;;0.20;0.20;;;8.40;99.90;;;;;;6246945;23;20021;-79
2023/04/16 00:52:24;;;;;;;0.20;0.20;;;9.20;99.90;;;;;;6218814;23;20317;-80
2023/04/16 00:54:51;;;;;;;0.10;0.10;;;8.50;99.90;;;;;;6237549;23;20012;-81
2023/04/16 00:57:34;;;;;;;0.20;0.20;;;8.40;99.90;;;;;;6223573;23;20428;-81
2023/04/16 01:00:00;;;;;;;0.10;0.10;;;8.40;99.90;;;;;;6218458;23;20016;-81
2023/04/16 01:02:38;;;;;;;0.20;0.20;;;8.40;99.90;;;;;;6242861;23;20519;-82
2023/04/16 01:05:12;;;;;;;0.20;0.20;;;8.40;99.90;;;;;;6243177;23;20310;-81
2023/04/16 01:07:44;;;;;;;;;;;8.40;99.90;;;;;;6216561;23;20031;-82
2023/04/16 01:10:21;;;;;;;0.20;0.20;;;8.30;99.90;;;;;;6236898;23;19915;-81
2023/04/16 01:12:54;;;;;;;0.20;0.20;;;8.40;99.90;;;;;;6215084;23;20016;-82
2023/04/16 01:15:19;;;;;;;0.20;0.20;;;8.30;99.90;;;;;;6215415;23;20095;-82
2023/04/16 01:17:45;;;;;;;0.10;0.10;;;8.30;99.90;;;;;;6244804;23;20040;-81
2023/04/16 01:20:17;;;;;;;0.20;0.20;;;8.30;99.90;;;;;;6217661;23;20027;-82
2023/04/16 01:22:46;;;;;;;0.20;0.20;;;8.30;99.90;;;;;;6242953;23;20063;-82
2023/04/16 01:25:15;;;;;;;0.17;0.17;;;8.30;99.90;;;;;;6215271;23;20051;-82
2023/04/16 01:27:40;;;;;;;0.13;0.13;;;8.30;99.90;;;;;;6242712;23;20483;-81
2023/04/16 01:30:07;;;;;;;0.10;0.10;;;8.30;99.90;;;;;;6216418;23;20104;-81
2023/04/16 01:32:32;;;;;;;0.20;0.20;;;8.30;99.90;;;;;;6244733;23;20022;-82
2023/04/16 01:34:58;;;;;;;0.10;0.10;;;8.30;99.90;;;;;;6244436;23;20398;-83
2023/04/16 01:37:27;;;;;;;0.20;0.20;;;8.30;99.90;;;;;;6219087;23;20023;-81
2023/04/16 01:39:52;;;;;;;0.20;0.20;;;8.40;99.90;;;;;;6249895;23;20016;-82
2023/04/16 01:42:18;;;;;;;0.10;0.10;;;8.30;99.90;;;;;;6218101;23;20115;-81
2023/04/16 01:44:46;;;;;;;0.20;0.20;;;8.30;99.90;;;;;;6243779;23;20106;-81
2023/04/16 01:47:12;;;;;;;0.20;0.20;;;8.30;99.90;;;;;;6216406;23;20801;-81
2023/04/16 01:49:37;;;;;;;0.20;0.20;;;8.30;99.90;;;;;;6242908;23;20008;-82
2023/04/16 01:52:03;;;;;;;0.20;0.20;;;8.30;99.90;;;;;;6216886;23;20020;-82
2023/04/16 01:54:29;;;;;;;0.10;0.10;;;8.20;99.90;;;;;;6216588;23;20099;-83
2023/04/16 01:56:58;;;;;;;0.20;0.20;;;8.30;99.90;;;;;;6214933;23;20012;-82
2023/04/16 01:59:23;;;;;;;0.10;0.10;;;8.20;99.90;;;;;;6217457;23;20024;-82
2023/04/16 02:01:49;;;;;;;0.20;0.20;;;8.20;99.90;;;;;;6244339;23;20417;-83
2023/04/16 02:04:18;;;;;;;0.20;0.20;;;;;;;;;;6217533;23;20252;-83
2023/04/16 02:06:43;;;;;;;0.20;0.20;;;8.20;99.90;;;;;;6217861;23;20047;-82
2023/04/16 02:09:09;;;;;;;0.20;0.20;;;8.30;99.90;;;;;;6218701;23;20389;-83
2023/04/16 02:11:35;;;;;;;0.20;0.20;;;8.30;99.90;;;;;;6243137;23;20099;-82
2023/04/16 02:14:00;;;;;;;0.20;0.20;;;8.40;99.90;;;;;;6216455;23;20028;-81
2023/04/16 02:16:26;;;;;;;0.20;0.20;;;8.40;99.90;;;;;;6216359;23;20012;-82
2023/04/16 02:18:55;;;;;;;0.20;0.20;;;8.30;99.90;;;;;;6248816;23;20291;-83
2023/04/16 02:21:20;;;;;;;0.20;0.20;;;8.20;99.90;;;;;;6219250;23;20016;-82
2023/04/16 02:23:50;;;;;;;0.10;0.10;;;8.30;99.90;;;;;;6218095;23;20074;-82
2023/04/16 02:26:16;;;;;;;0.20;0.20;;;8.30;99.90;;;;;;6244776;23;20040;-82
2023/04/16 02:28:44;;;;;;;0.17;0.17;;;8.30;99.90;;;;;;6246560;23;20016;-81
2023/04/16 02:31:10;;;;;;;0.20;0.20;;;8.30;99.90;;;;;;6245797;23;20074;-81
2023/04/16 02:33:35;;;;;;;0.20;0.20;;;8.30;99.90;;;;;;6246039;23;20012;-82
2023/04/16 02:36:13;;;;;;;0.20;0.20;;;8.30;99.90;;;;;;6216186;22;20519;-80
2023/04/16 02:38:39;;;;;;;0.20;0.20;;;8.30;99.90;;;;;;6226368;23;20021;-80
2023/04/16 02:41:11;;;;;;;0.20;0.20;;;9.00;99.90;;;;;;6202709;23;20055;-81
2023/04/16 02:43:37;;;;;;;0.20;0.20;;;9.40;99.90;;;;;;6218595;23;20017;-82
2023/04/16 02:46:15;;;;;;;0.20;0.20;;;9.20;99.90;;;;;;6211248;23;20597;-81
2023/04/16 02:48:44;;;;;;;0.20;0.20;;;8.30;99.90;;;;;;6186471;23;20028;-81
2023/04/16 02:51:09;;;;;;;0.15;0.15;;;8.30;99.90;;;;;;6185698;23;20016;-80
2023/04/16 02:53:44;;;;;;;0.10;0.10;;;8.30;99.90;;;;;;6211495;23;20082;-81
2023/04/16 02:56:25;;;;;;;0.20;0.20;;;8.40;99.90;;;;;;6205480;23;20024;-81
2023/04/16 02:59:00;;;;;;;0.15;0.15;;;8.30;99.90;;;;;;6184650;23;20783;-81
2023/04/16 03:01:27;;;;;;;0.20;0.20;;;8.30;99.90;;;;;;6211255;23;20028;-82
2023/04/16 03:04:10;;;;;;;0.20;0.20;;;8.30;99.90;;;;;;6211060;23;20020;-80
2023/04/16 03:06:36;;;;;;;;;;;8.30;99.90;;;;;;6195528;23;20027;-81
2023/04/16 03:09:24;;;;;;;0.17;0.17;;;7.60;99.90;;;;;;6213796;23;20244;-82
2023/04/16 03:11:53;;;;;;;0.13;0.13;;;7.50;99.90;;;;;;6212409;23;20092;-81
2023/04/16 03:14:18;;;;;;;0.20;0.20;;;8.30;99.90;;;;;;6184572;23;20067;-81
2023/04/16 03:16:44;;;;;;;0.15;0.15;;;8.90;99.90;;;;;;6185740;23;20340;-81
2023/04/16 03:19:12;;;;;;;0.10;0.10;;;8.30;99.90;;;;;;6185483;23;20020;-81
2023/04/16 03:21:41;;;;;;;0.10;0.10;;;8.30;99.90;;;;;;6210929;23;20401;-81
2023/04/16 03:24:16;;;;;;;0.10;0.10;;;8.70;99.90;;;;;;6186829;23;20020;-81
2023/04/16 03:26:41;;;;;;;0.20;0.20;;;8.30;99.90;;;;;;6184067;23;20052;-80
2023/04/16 03:29:20;;;;;;;0.10;0.10;;;8.30;99.90;;;;;;6211097;23;20024;-81
2023/04/16 03:31:49;;;;;;;0.20;0.20;;;8.20;99.90;;;;;;6186424;23;20027;-80
2023/04/16 03:34:17;;;;;;;0.10;0.10;;;8.20;99.90;;;;;;6214252;23;20023;-80
2023/04/16 03:36:43;;;;;;;0.10;0.10;;;8.20;99.90;;;;;;6212344;23;20023;-80
2023/04/16 03:39:10;;;;;;;0.20;0.20;;;9.10;99.90;;;;;;6212324;23;20024;-80
2023/04/16 03:41:35;;;;;;;0.20;0.20;;;9.00;99.90;;;;;;6212184;23;20051;-81
2023/04/16 03:44:02;;;;;;;0.20;0.20;;;8.30;99.90;;;;;;6213319;23;20016;-80
2023/04/16 03:46:30;;;;;;;0.20;0.20;;;8.20;99.90;;;;;;6212489;23;20016;-80
2023/04/16 03:48:56;;;;;;;0.20;0.20;;;8.30;99.90;;;;;;6212277;23;20315;-80
2023/04/16 03:51:25;;;;;;;0.20;0.20;;;8.30;99.90;;;;;;6186836;23;20027;-81
2023/04/16 03:53:53;;;;;;;0.20;0.20;;;8.60;99.90;;;;;;6214218;23;20016;-81
2023/04/16 03:56:19;;;;;;;0.10;0.10;;;9.10;99.90;;;;;;6211941;23;20052;-80
2023/04/16 03:58:45;;;;;;;0.20;0.20;;;8.30;99.90;;;;;;6187868;23;20024;-80
2023/04/16 04:01:26;;;;;;;0.10;0.10;;;8.30;99.90;;;;;;6213205;23;20013;-80
2023/04/16 04:04:00;;;;;;;0.20;0.20;;;8.30;99.90;;;;;;6211645;23;20026;-81
2023/04/16 04:06:26;;;;;;;0.10;0.10;;;9.10;99.90;;;;;;6212983;23;20452;-81
2023/04/16 04:08:58;;;;;;;0.20;0.20;;;8.30;99.90;;;;;;6187409;23;20024;-81
2023/04/16 04:11:25;;;;;;;0.15;0.15;;;8.20;99.90;;;;;;6186852;23;20020;-80
2023/04/16 04:13:53;;;;;;;0.15;0.15;;;8.20;99.90;;;;;;6186589;23;20837;-80
2023/04/16 04:16:19;;;;;;;0.10;0.10;;;8.30;99.90;;;;;;6185200;23;20032;-81
2023/04/16 04:18:45;;;;;;;0.20;0.20;;;8.80;99.90;;;;;;6214216;23;20016;-81
2023/04/16 04:21:30;;;;;;;0.20;0.20;;;8.30;99.90;;;;;;6188403;23;20024;-82
2023/04/16 04:23:56;;;;;;;0.20;0.20;;;8.30;99.90;;;;;;6228603;23;20009;-80
2023/04/16 04:29:57;;;;;;;0.20;0.20;;;8.20;99.90;;;;;;6191230;23;20453;-83
2023/04/16 04:32:23;;;;;;;0.20;0.20;;;8.80;99.90;;;;;;6184171;23;20201;-82
2023/04/16 04:35:02;;;;;;;0.15;0.15;;;8.20;99.90;;;;;;6186231;23;20020;-82
2023/04/16 04:37:37;;;;;;;0.13;0.13;;;8.20;99.90;;;;;;6211106;23;20016;-82
2023/04/16 04:40:03;;;;;;;0.20;0.20;;;8.20;99.90;;;;;;6184808;23;20345;-83
2023/04/16 04:42:28;;;;;;;0.20;0.20;;;8.20;99.90;;;;;;6210755;23;20480;-82
2023/04/16 04:45:00;;;;;;;0.10;0.10;;;8.20;99.90;;;;;;6184076;23;20012;-81
2023/04/16 04:47:26;;;;;;;0.10;0.10;;;8.20;99.90;;;;;;6210587;23;20083;-81
2023/04/16 04:50:15;;;;;;;0.17;0.17;;;8.20;99.90;;;;;;6186248;23;20381;-81
2023/04/16 04:52:40;;;;;;;0.10;0.10;;;8.20;99.90;;;;;;6193381;23;20028;-81
2023/04/16 04:55:09;;;;;;;0.20;0.20;;;8.90;99.90;;;;;;6186122;23;20016;-81
2023/04/16 04:57:35;;;;;;;0.20;0.20;;;8.60;99.90;;;;;;6211592;23;20036;-81
2023/04/16 05:00:04;;;;;;;0.20;0.20;;;8.10;99.90;;;;;;6185214;23;20021;-82
2023/04/16 05:02:30;;;;;;;0.20;0.20;;;8.10;99.90;;;;;;6212558;23;20023;-84
2023/04/16 05:04:56;;;;;;;0.20;0.20;;;8.10;99.90;;;;;;6212431;23;20390;-82
2023/04/16 05:07:21;;;;;;;0.20;0.20;;;8.10;99.90;;;;;;6183412;23;20008;-80
2023/04/16 05:09:50;;;;;;;0.20;0.20;;;8.50;99.90;;;;;;6185351;23;20393;-80
2023/04/16 05:12:16;;;;;;;0.20;0.20;;;8.20;99.90;;;;;;6209609;23;20013;-80
2023/04/16 05:14:42;;;;;;;0.10;0.10;;;8.10;99.90;;;;;;6210565;23;20021;-80
2023/04/16 05:17:09;;;;;;;0.10;0.10;;;8.40;99.90;;;;;;6185131;23;20009;-80
2023/04/16 05:19:35;;;;;;;0.20;0.20;;;8.20;99.90;;;;;;6183753;23;20024;-80
2023/04/16 05:22:04;;;;;;;0.13;0.13;;;8.20;99.90;;;;;;6185073;23;20512;-81
2023/04/16 05:24:51;;;;;;;0.20;0.20;;;8.90;99.90;;;;;;6186531;23;20020;-80
2023/04/16 05:27:20;;;;;;;0.10;0.10;;;8.20;99.90;;;;;;6184431;23;20020;-81
2023/04/16 05:29:49;;;;;;;0.20;0.20;;;8.20;99.90;;;;;;6213531;23;20437;-80
2023/04/16 05:32:14;;;;;;;0.15;0.15;;;8.20;99.90;;;;;;6211966;23;20052;-80
2023/04/16 05:34:40;;;;;;;0.20;0.20;;;8.20;99.90;;;;;;6212531;23;20016;-81
2023/04/16 05:37:32;;;;;;;0.20;0.20;;;7.80;99.90;;;;;;6189448;22;20027;-80
2023/04/16 05:40:16;;;;;;;0.10;0.10;;;7.60;99.90;;;;;;6124826;23;20060;-81
2023/04/16 05:42:42;;;;;;;0.20;0.20;;;8.20;99.90;;;;;;6123127;23;20017;-81
2023/04/16 05:45:14;;;;;;;0.10;0.10;;;8.20;99.90;;;;;;6150177;23;20018;-81
2023/04/16 05:47:39;;;;;;;0.10;0.10;;;8.10;99.90;;;;;;6152481;23;20028;-81
2023/04/16 05:50:06;;;;;;;0.20;0.20;;;8.20;99.90;;;;;;6126551;23;20017;-81
2023/04/16 05:55:02;;;;;;;0.20;0.20;;;8.20;99.90;;;;;;6304896;22;20019;-82
2023/04/16 05:57:28;;;;;;;0.20;0.20;;;8.20;99.90;;;;;;6299963;22;20015;-83
2023/04/16 05:59:54;;;;;;;0.20;0.20;;;9.00;99.90;;;;;;6280215;22;20019;-82
2023/04/16 06:02:41;;;;;;;0.20;0.20;;;8.50;99.90;;;;;;6279282;22;20512;-82
2023/04/16 06:05:06;;;;;;;0.20;0.20;;;9.60;99.90;;;;;;6308973;22;20019;-83
2023/04/16 06:07:32;;;;;;;0.13;0.13;;;8.20;99.90;;;;;;6309195;22;20045;-82
2023/04/16 06:09:59;;;;;;;0.13;0.13;;;8.20;99.90;;;;;;6331760;22;20054;-82
2023/04/16 06:12:27;;;;;;;0.20;0.20;;;7.40;99.90;;;;;;6297820;22;20019;-83
2023/04/16 06:14:56;;;;;;;0.20;0.20;;;7.30;99.90;;;;;;6279637;22;20054;-82
2023/04/16 06:17:22;;;;;;;0.20;0.20;;;8.30;99.90;;;;;;6275852;22;20322;-83
2023/04/16 06:19:54;;;;;;;0.17;0.17;;;8.30;99.90;;;;;;6301853;22;20023;-83
2023/04/16 06:22:19;;;;;;;0.20;0.20;;;8.50;99.90;;;;;;6275901;22;20469;-82
2023/04/16 06:25:03;;;;;;;0.20;0.20;;;9.00;99.90;;;;;;6304408;22;20411;-82
2023/04/16 06:27:48;;;;;;;0.20;0.20;;;8.40;99.90;;;;;;6303552;22;20082;-82
2023/04/16 06:30:25;;;;;;;0.20;0.20;;;9.10;99.90;;;;;;6302279;22;20436;-83
2023/04/16 06:33:06;;;;;;;0.20;0.20;;;8.40;99.90;;;;;;6303422;22;20072;-81
2023/04/16 06:35:32;;;;;;;0.20;0.20;;;8.40;99.90;;;;;;6276884;22;20469;-81
2023/04/16 06:40:48;;;;;;;0.20;0.20;;;8.50;99.90;;;;;;6276409;22;20438;-81
2023/04/16 06:43:31;;;;;;;0.20;0.20;;;8.30;99.90;;;;;;6299320;22;20023;-82
2023/04/16 06:45:57;;;;;;;0.17;0.17;;;8.70;99.90;;;;;;6276570;22;20367;-81
2023/04/16 06:48:31;;;;;;;0.20;0.20;;;8.70;99.90;;;;;;6305416;22;20072;-81
2023/04/16 06:51:00;;;;;;;0.10;0.10;;;8.80;99.90;;;;;;6199568;22;20024;-81
2023/04/16 06:53:26;;;;;;;0.20;0.20;;;9.00;99.90;;;;;;6214690;23;20095;-81
2023/04/16 06:56:07;;;;;;;0.20;0.20;;;8.90;99.90;;;;;;6241971;23;20452;-81
2023/04/16 06:58:39;;;;;;;0.20;0.20;;;9.00;99.90;;;;;;6244709;23;20447;-81
2023/04/16 07:01:49;;;;;;;0.20;0.20;;;9.10;99.90;;;;;;6215674;23;20365;-81
2023/04/16 07:04:24;;;;;;;0.20;0.20;;;9.10;99.90;;;;;;6217044;23;20047;-81
2023/04/16 07:09:58;;;;;;;0.20;0.20;;;9.30;99.90;;;;;;6199625;22;20425;-82
2023/04/16 07:12:26;;;;;;;0.10;0.10;;;9.70;99.90;;;;;;6184089;23;20108;-79
2023/04/16 07:15:08;;;;;;;0.20;0.20;;;9.40;99.90;;;;;;6184737;23;20012;-80
2023/04/16 07:17:55;;;;;;;0.10;0.10;;;9.50;99.90;;;;;;6182801;23;20717;-80
2023/04/16 07:20:46;;;;;;;0.20;0.20;;;9.80;99.90;;;;;;6212973;23;20009;-80
2023/04/16 07:23:30;;;;;;;0.20;0.20;;;9.50;99.90;;;;;;6186952;23;20016;-81
2023/04/16 07:26:03;;;;;;;0.10;0.10;;;9.60;99.90;;;;;;6186449;23;20020;-82
2023/04/16 07:28:29;;;;;;;0.17;0.17;;;9.60;99.90;;;;;;6187276;23;20044;-82
2023/04/16 07:31:19;;;;;;;;;;;;;;;;;;;;;
2023/04/16 07:38:15;;;;;;;0.20;0.20;;;9.80;99.90;;;;;;6211580;23;20068;-82
2023/04/16 07:44:16;;;;;;;0.10;0.10;;;9.70;99.90;;;;;;6243696;22;20031;-83
2023/04/16 07:46:41;;;;;;;0.20;0.20;;;9.80;99.90;;;;;;6219490;23;20027;-83
2023/04/16 07:49:07;;;;;;;0.20;0.20;;;9.80;99.90;;;;;;6245627;23;20008;-83
2023/04/16 07:54:32;;;;;;;0.20;0.20;;;9.90;99.90;;;;;;6259765;22;20034;-83
2023/04/16 07:57:55;;;;;;;0.10;0.10;;;10.00;99.90;;;;;;6239706;23;20012;-84
2023/04/16 08:00:54;;;;;;;0.20;0.20;;;10.00;99.90;;;;;;6121316;23;20041;-84
2023/04/16 08:03:23;;;;;;;0.10;0.10;;;9.70;99.90;;;;;;6103994;23;20018;-85
2023/04/16 08:06:18;;;;;;;0.10;0.10;;;10.10;99.90;;;;;;6105066;23;20157;-82
2023/04/16 08:08:59;;;;;;;0.17;0.17;;;10.10;99.90;;;;;;6095568;23;20017;-82
2023/04/16 08:14:36;;;;;;;0.20;0.20;;;9.60;99.90;;;;;;6121106;23;20149;-82
2023/04/16 08:17:27;;;;;;;0.13;0.13;;;10.30;99.90;;;;;;6094405;23;20024;-81
2023/04/16 08:19:52;;;;;;;0.13;0.13;;;10.40;99.90;;;;;;6094932;23;20049;-82
2023/04/16 08:22:21;;;;;;;0.20;0.20;;;10.60;99.90;;;;;;6119950;23;20479;-81
2023/04/16 08:25:06;;;;;;;0.15;0.15;;;10.50;99.90;;;;;;6094513;23;20073;-81
2023/04/16 08:27:53;;;;;;;0.20;0.20;;;10.60;99.90;;;;;;6150050;22;20020;-82
2023/04/16 08:30:20;;;;;;;0.10;0.10;;;10.60;99.90;;;;;;6240617;23;20086;-82
2023/04/16 08:32:55;;;;;;;0.10;0.10;;;10.70;99.90;;;;;;6238319;23;20012;-81
2023/04/16 09:11:26;;;;;;;0.10;0.10;;;12.00;99.90;;;;;;6237734;22;20024;-82
2023/04/16 09:13:52;;;;;;;0.20;0.20;;;12.10;99.90;;;;;;6215258;23;20107;-81
2023/04/16 09:16:20;;;;;;;0.20;0.20;;;12.10;99.90;;;;;;6215046;23;20059;-82
2023/04/16 09:18:50;;;;;;;0.13;0.13;;;12.20;99.90;;;;;;6215017;23;20070;-82
2023/04/16 09:21:29;;;;;;;0.20;0.20;;;12.30;99.90;;;;;;6216851;23;20023;-82
2023/04/16 09:24:02;;;;;;;0.20;0.20;;;12.40;99.90;;;;;;6218822;23;20024;-83
2023/04/16 09:26:49;;;;;;;0.10;0.10;;;12.80;99.90;;;;;;6217490;23;20016;-84
2023/04/16 09:30:14;;;;;;;0.20;0.20;;;12.60;99.90;;;;;;6246045;23;20058;-83
2023/04/16 09:37:41;;;;;;;0.20;0.20;;;12.70;99.90;;;;;;6262739;22;20032;-82
2023/04/16 09:40:42;;;;;;;0.10;0.10;;;12.80;99.90;;;;;;6243114;23;20027;-84
2023/04/16 09:43:35;;;;;;;0.10;0.10;;;12.90;99.90;;;;;;6251456;23;20073;-83
2023/04/16 09:46:18;;;;;;;0.20;0.20;;;12.60;99.90;;;;;;6215141;23;20016;-83
2023/04/16 09:48:47;;;;;;;0.10;0.10;;;12.90;99.90;;;;;;6216088;23;20027;-85
2023/04/16 09:51:12;;;;;;;0.17;0.17;;;13.00;99.90;;;;;;6215941;23;20023;-82
2023/04/16 09:53:38;;;;;;;0.20;0.20;;;13.00;99.90;;;;;;6216939;23;20376;-82
2023/04/16 09:56:05;;;;;;;0.20;0.20;;;13.10;99.90;;;;;;6241695;23;20020;-83
2023/04/16 09:58:32;;;;;;;0.10;0.10;;;13.10;99.90;;;;;;6216037;23;20020;-82
2023/04/16 10:01:03;;;;;;;0.20;0.20;;;13.20;99.90;;;;;;6216057;23;20056;-83
2023/04/16 10:03:32;;;;;;;;;;;13.20;99.90;;;;;;6216111;23;20095;-82
2023/04/16 10:06:15;;;;;;;0.17;0.17;;;13.20;99.90;;;;;;6215743;23;19920;-82
2023/04/16 10:08:59;;;;;;;0.10;0.10;;;13.20;99.90;;;;;;6215415;23;20142;-82
2023/04/16 10:11:25;;;;;;;0.10;0.10;;;13.20;99.90;;;;;;6241690;23;20027;-83
2023/04/16 10:13:51;;;;;;;0.10;0.10;;;13.20;99.90;;;;;;6216944;23;20024;-83
2023/04/16 10:16:17;;;;;;;0.10;0.10;;;13.30;99.90;;;;;;6242844;23;20341;-83
2023/04/16 10:18:53;;;;;;;0.15;0.15;;;13.40;99.90;;;;;;6216541;23;20020;-82
2023/04/16 10:21:19;;;;;;;0.10;0.10;;;13.50;99.90;;;;;;6241506;23;20020;-81
2023/04/16 10:23:46;;;;;;;0.10;0.10;;;13.60;99.90;;;;;;6242495;23;20066;-82
2023/04/16 10:26:12;;;;;;;0.20;0.20;;;13.70;99.90;;;;;;6215179;23;20391;-84
2023/04/16 10:28:39;;;;;;;0.10;0.10;;;13.70;99.90;;;;;;6244260;23;20344;-82
2023/04/16 10:31:07;;;;;;;0.20;0.20;;;13.80;99.90;;;;;;6215629;23;20087;-85
2023/04/16 10:33:44;;;;;;;0.20;0.20;;;13.90;99.90;;;;;;6218407;23;20042;-83
2023/04/16 10:36:22;;;;;;;0.10;0.10;;;13.90;99.90;;;;;;6244857;23;20012;-84
2023/04/16 10:41:56;;;;;;;0.20;0.20;;;14.10;99.90;;;;;;6243931;22;20032;-82
2023/04/16 10:47:28;;;;;;;0.10;0.10;;;14.20;99.90;;;;;;6216778;23;20036;-82
2023/04/16 10:49:57;;;;;;;0.10;0.10;;;14.30;99.90;;;;;;6242709;23;20012;-84
2023/04/16 10:52:32;;;;;;;0.13;0.13;;;14.40;99.90;;;;;;6242092;23;20062;-84
2023/04/16 10:54:58;;;;;;;0.10;0.10;;;14.50;99.90;;;;;;6245522;23;20016;-84
2023/04/16 10:58:23;;;;;;;0.10;0.10;;;14.60;99.90;;;;;;6245030;23;20015;-84
2023/04/16 11:01:17;;;;;;;0.20;0.20;;;14.50;99.90;;;;;;6179959;23;20048;-85
2023/04/16 11:04:23;;;;;;;0.17;0.17;;;14.30;99.90;;;;;;6191858;23;20036;-85
2023/04/16 11:07:13;;;;;;;0.10;0.10;;;14.30;99.90;;;;;;6179749;23;20017;-85
2023/04/16 11:09:58;;;;;;;0.20;0.20;;;14.30;99.90;;;;;;6179902;23;20013;-83
2023/04/16 11:12:57;;;;;;;0.20;0.20;;;14.30;99.90;;;;;;6158903;23;20025;-85
2023/04/16 11:15:35;;;;;;;0.15;0.15;;;14.30;99.90;;;;;;6180721;23;20086;-82
2023/04/16 11:18:05;;;;;;;0.13;0.13;;;14.40;99.90;;;;;;6157028;23;20414;-80
2023/04/16 11:20:31;;;;;;;0.10;0.10;;;14.40;99.90;;;;;;6183941;23;20429;-79
2023/04/16 11:22:57;;;;;;;0.10;0.10;;;14.40;99.90;;;;;;6179480;23;20031;-82
2023/04/16 11:25:24;;;;;;;0.20;0.20;;;14.40;99.90;;;;;;6161763;23;20013;-82
2023/04/16 11:27:50;;;;;;;0.20;0.20;;;14.30;99.90;;;;;;6176834;23;20017;-88
2023/04/16 11:30:44;;;;;;;0.20;0.20;;;14.40;99.90;;;;;;6152093;23;20027;-84
2023/04/16 11:33:13;;;;;;;0.20;0.20;;;14.20;99.90;;;;;;6241711;23;20016;-84
2023/04/16 11:36:15;;;;;;;0.17;0.17;;;14.80;99.90;;;;;;6242868;23;20020;-84
2023/04/16 11:38:41;;;;;;;0.20;0.20;;;13.60;99.90;;;;;;6217442;23;20344;-84
2023/04/16 11:41:24;;;;;;;0.15;0.15;;;14.50;99.90;;;;;;6213888;23;20505;-84
2023/04/16 11:44:22;;;;;;;0.10;0.10;;;13.90;99.90;;;;;;6243308;23;20027;-83
2023/04/16 11:46:54;;;;;;;0.10;0.10;;;14.70;99.90;;;;;;6215635;23;20448;-84
2023/04/16 11:49:35;;;;;;;0.20;0.20;;;14.60;99.90;;;;;;6216199;23;20054;-86
2023/04/16 11:52:05;;;;;;;0.20;0.20;;;14.50;99.90;;;;;;6243541;23;20012;-84
2023/04/16 11:54:33;;;;;;;0.10;0.10;;;14.50;99.90;;;;;;6242197;22;20028;-85
2023/04/16 11:57:37;;;;;;;0.10;0.10;;;14.40;99.90;;;;;;6242484;23;20019;-83
2023/04/16 12:00:21;;;;;;;0.20;0.20;;;14.40;99.90;;;;;;6216383;23;20020;-83
2023/04/16 12:02:56;;;;;;;0.20;0.20;;;14.30;99.90;;;;;;6214767;23;20087;-83
2023/04/16 12:05:39;;;;;;;0.10;0.10;;;14.50;99.90;;;;;;6216458;23;20012;-84
2023/04/16 12:08:07;;;;;;;1.08;0.80;;;14.20;99.90;;;;;;6216866;23;20024;-84
2023/04/16 12:11:05;;;;;;;0.20;0.20;;;14.30;99.90;;;;;;6239768;23;20027;-83
2023/04/16 12:14:07;;;;;;;0.10;0.10;;;14.40;99.90;;;;;;6216281;23;20118;-86
2023/04/16 12:16:51;;;;;;;0.10;0.10;;;14.50;99.90;;;;;;6215831;23;20016;-84
2023/04/16 12:19:23;;;;;;;0.10;0.10;;;14.50;99.90;;;;;;6243467;23;20344;-85
2023/04/16 12:21:49;;;;;;;0.13;0.13;;;14.70;99.90;;;;;;6214775;23;20016;-85
2023/04/16 12:24:26;;;;;;;0.10;0.10;;;14.60;99.90;;;;;;6215492;23;20019;-84
2023/04/16 12:26:55;;;;;;;0.20;0.20;;;14.60;99.90;;;;;;6215676;23;20016;-84
2023/04/16 12:29:30;;;;;;;0.20;0.20;;;14.60;99.90;;;;;;6243768;23;20016;-84
2023/04/16 12:31:56;;;;;;;0.10;0.10;;;14.60;99.90;;;;;;6216799;23;20023;-84
2023/04/16 12:34:22;;;;;;;0.20;0.20;;;14.70;99.90;;;;;;6216931;23;20020;-86
2023/04/16 12:37:11;;;;;;;0.10;0.10;;;14.80;99.90;;;;;;6215573;23;20336;-87
2023/04/16 12:39:36;;;;;;;0.20;0.20;;;15.00;99.90;;;;;;6216999;23;20027;-84
2023/04/16 12:42:03;;;;;;;0.10;0.10;;;15.00;99.90;;;;;;6225584;23;20012;-84
2023/04/16 12:44:41;;;;;;;0.10;0.10;;;15.00;99.90;;;;;;6219421;23;20031;-84
2023/04/16 12:47:21;;;;;;;0.20;0.20;;;15.00;99.90;;;;;;6249421;23;20016;-84
2023/04/16 12:49:50;;;;;;;0.10;0.10;;;14.90;99.90;;;;;;6244692;23;20055;-83
2023/04/16 12:52:25;;;;;;;0.17;0.17;;;14.70;99.90;;;;;;6215383;23;20024;-83
2023/04/16 12:55:36;;;;;;;0.15;0.15;;;14.60;99.90;;;;;;6217008;23;20399;-83
2023/04/16 12:58:08;;;;;;;0.20;0.20;;;14.50;99.90;;;;;;6217657;23;20024;-84
2023/04/16 13:00:40;;;;;;;0.20;0.20;;;14.40;99.90;;;;;;6246216;23;20326;-83
2023/04/16 13:03:05;;;;;;;0.10;0.10;;;14.40;99.90;;;;;;6221673;23;20016;-84
2023/04/16 13:05:31;;;;;;;0.10;0.10;;;14.30;99.90;;;;;;6243938;23;20415;-84
2023/04/16 13:08:09;;;;;;;0.10;0.10;;;14.30;99.90;;;;;;6266145;23;20059;-85
2023/04/16 13:10:35;;;;;;;0.15;0.15;;;14.20;99.90;;;;;;6216591;23;20039;-85
2023/04/16 13:13:10;;;;;;;0.20;0.20;;;14.10;99.90;;;;;;6217223;23;20017;-84
2023/04/16 13:15:42;;;;;;;0.20;0.20;;;14.10;99.90;;;;;;6217143;23;20052;-84
2023/04/16 13:18:07;;;;;;;0.20;0.20;;;14.00;99.90;;;;;;6217059;23;20019;-85
2023/04/16 13:20:33;;;;;;;0.20;0.20;;;13.90;99.90;;;;;;6216370;23;20461;-85
2023/04/16 13:23:17;;;;;;;0.10;0.10;;;13.80;99.90;;;;;;6217038;23;20020;-85
2023/04/16 13:25:43;;;;;;;0.10;0.10;;;13.80;99.90;;;;;;6241356;23;20012;-85
2023/04/16 13:28:11;;;;;;;0.10;0.10;;;13.80;99.90;;;;;;6244451;23;20020;-84
2023/04/16 13:30:45;;;;;;;0.20;0.20;;;13.80;99.90;;;;;;6217146;23;20043;-84
2023/04/16 13:33:20;;;;;;;0.10;0.10;;;13.90;99.90;;;;;;6217048;23;20091;-86
2023/04/16 13:35:49;;;;;;;0.10;0.10;;;13.90;99.90;;;;;;6247506;23;20016;-85
2023/04/16 13:38:15;;;;;;;0.15;0.15;;;13.90;99.90;;;;;;6246763;23;20042;-85
2023/04/16 13:40:50;;;;;;;0.10;0.10;;;13.90;99.90;;;;;;6216827;23;20012;-84
2023/04/16 13:43:17;;;;;;;0.10;0.10;;;13.90;99.90;;;;;;6219518;23;20035;-84
2023/04/16 13:45:54;;;;;;;0.10;0.10;;;14.00;99.90;;;;;;6245594;23;20012;-85
2023/04/16 13:48:32;;;;;;;0.13;0.13;;;14.00;99.90;;;;;;6216540;23;20073;-85
2023/04/16 13:51:01;;;;;;;0.20;0.20;;;14.10;99.90;;;;;;6218254;23;20445;-85
2023/04/16 13:53:27;;;;;;;0.10;0.10;;;14.20;99.90;;;;;;6218136;23;20028;-85
2023/04/16 13:55:55;;;;;;;0.10;0.10;;;14.30;99.90;;;;;;6243283;23;20448;-85
2023/04/16 13:58:33;;;;;;;0.20;0.20;;;14.40;99.90;;;;;;6218200;23;20055;-87
2023/04/16 14:01:09;;;;;;;0.10;0.10;;;14.50;99.90;;;;;;6243325;23;20023;-84
2023/04/16 14:03:41;;;;;;;0.10;0.10;;;14.60;99.90;;;;;;6244605;23;20419;-85
2023/04/16 14:06:06;;;;;;;;;;;14.70;99.90;;;;;;6217974;23;20074;-83
2023/04/16 14:08:47;;;;;;;0.10;0.10;;;14.80;99.90;;;;;;6255392;23;19919;-82
2023/04/16 14:11:13;;;;;;;0.10;0.10;;;15.00;99.90;;;;;;6251824;23;20074;-83
2023/04/16 14:13:45;;;;;;;0.10;0.10;;;15.10;99.90;;;;;;6216950;23;20091;-84
2023/04/16 14:16:11;;;;;;;0.20;0.20;;;15.40;99.90;;;;;;6217443;23;20371;-85
2023/04/16 14:18:41;;;;;;;0.20;0.20;;;16.30;99.90;;;;;;6217786;23;20011;-84
2023/04/16 14:21:21;;;;;;;0.20;0.20;;;16.50;99.90;;;;;;6226671;23;20023;-83
2023/04/16 14:26:43;;;;;;;0.10;0.10;;;18.60;99.90;;;;;;6221539;23;20016;-83
2023/04/16 14:29:15;;;;;;;0.30;0.30;;;;;;;;;;6244142;23;20016;-84
2023/04/16 14:31:40;;;;;;;0.20;0.20;;;19.70;99.90;;;;;;6216481;23;20023;-84
2023/04/16 14:34:12;;;;;;;0.20;0.20;;;20.00;99.90;;;;;;6244877;23;20016;-83
2023/04/16 14:36:59;;;;;;;0.20;0.20;;;21.30;99.90;;;;;;6243616;23;20058;-85
2023/04/16 14:39:47;;;;;;;0.20;0.20;;;21.20;99.90;;;;;;6245542;23;20091;-84
2023/04/16 14:42:15;;;;;;;0.20;0.20;;;;;;;;;;6242783;23;20026;-84
2023/04/16 14:44:41;;;;;;;0.20;0.20;;;;;;;;;;6245981;23;20018;-85